Terminal Aerodrome Forecast
Issued by NWS Raleigh/Durham, NC

Home | Current Version | Previous Version | Text Only | Print | Product List | Glossary On
Versions: 1 2 3 4 5 6 7 8 9 10 11 12 13 14 15 16 17 18 19 20 21 22 23 24 25 26 27 28 29 30 31 32 33 34 35 36 37 38 39 40 41 42 43 44 45 46 47 48 49 50
000
FTUS42 KRAH 210533
TAFFAY
TAF
KFAY 210533Z 2106/2206 16004KT P6SM SKC
     FM210800 18005KT 4SM BR BKN015
     FM211000 19005KT 1/2SM FG BKN008
     FM211400 19006KT P6SM BKN003
     FM211600 20008G18KT P6SM SCT030
     FM211900 20008KT P6SM BKN060=

USA.gov is the U.S. government's official web portal to all federal, state and local government web resources and services.